Time;durP1;ratioP1;P1;durP2;ratioP2;P2;SDS_P1;SDS_P2;PMS_P1;PMS_P2;Temp;Humidity;BMP_temperature;BMP_pressure;BME280_temperature;BME280_humidity;BME280_pressure;Samples;Min_cycle;Max_cycle;Signal;HPM_P1;HPM_P2
2022/04/08 00:01:03;;;;;;;1.48;1.48;;;;;;;11.04;83.56;63136.75;5024960;28;20238;-75
2022/04/08 00:03:30;;;;;;;1.65;1.55;;;;;;;11.10;82.63;63147.53;5026579;28;20223;-75
2022/04/08 00:05:57;;;;;;;2.70;1.40;;;;;;;11.06;84.93;63145.94;5027230;28;20492;-75
2022/04/08 00:08:24;;;;;;;2.67;1.50;;;;;;;10.98;88.17;63130.53;5022707;28;20286;-75
2022/04/08 00:10:51;;;;;;;1.73;1.63;;;;;;;10.78;90.72;63112.38;5025050;28;20215;-74
2022/04/08 00:13:18;;;;;;;2.58;1.23;;;;;;;10.68;91.22;63091.84;5027016;28;20219;-75
2022/04/08 00:15:45;;;;;;;1.33;1.27;;;;;;;10.60;92.13;63093.22;5026506;28;20198;-75
2022/04/08 00:18:13;;;;;;;1.33;1.25;;;;;;;10.54;92.23;63085.00;5024389;28;20233;-75
2022/04/08 00:20:40;;;;;;;1.33;1.23;;;;;;;10.48;92.11;63078.78;5026044;28;20469;-76
2022/04/08 00:23:07;;;;;;;1.50;1.40;;;;;;;10.48;92.74;63083.88;5024754;28;20277;-75
2022/04/08 00:25:33;;;;;;;1.58;1.48;;;;;;;10.43;92.92;63076.66;5010696;28;20214;-75
2022/04/08 00:28:00;;;;;;;1.48;1.30;;;;;;;10.44;93.11;63072.59;5022958;28;20218;-75
2022/04/08 00:30:27;;;;;;;3.38;1.60;;;;;;;10.48;92.64;63079.28;5026357;28;20199;-74
2022/04/08 00:32:57;;;;;;;1.70;1.60;;;;;;;10.39;90.51;63069.44;5025567;28;20461;-74
2022/04/08 00:35:26;;;;;;;1.73;1.70;;;;;;;10.51;91.43;63081.38;5017514;28;20200;-74
2022/04/08 00:37:53;;;;;;;1.83;1.73;;;;;;;10.46;89.58;63079.25;5024767;28;20577;-75
2022/04/08 00:40:19;;;;;;;1.60;1.50;;;;;;;10.51;86.27;63079.31;5025236;28;20273;-74
2022/04/08 00:42:46;;;;;;;1.80;1.80;;;;;;;10.60;86.85;63088.13;5025862;28;20222;-74
2022/04/08 00:45:13;;;;;;;1.65;1.55;;;;;;;10.55;86.54;63085.50;5024040;28;20245;-74
2022/04/08 00:47:41;;;;;;;1.70;1.63;;;;;;;10.63;86.00;63098.88;5025425;28;20234;-75
2022/04/08 00:50:09;;;;;;;1.35;1.30;;;;;;;10.65;83.72;63098.91;5026071;28;20230;-74
2022/04/08 00:52:40;;;;;;;2.08;1.98;;;;;;;10.69;84.46;63097.44;5023409;28;20436;-74
2022/04/08 00:55:08;;;;;;;2.35;1.80;;;;;;;10.66;85.15;63097.41;5023710;28;20511;-76
2022/04/08 00:57:35;;;;;;;1.75;1.65;;;;;;;10.62;86.98;63092.75;5025464;28;20218;-74
2022/04/08 01:00:04;;;;;;;1.90;1.80;;;;;;;10.60;87.78;63091.19;5025695;28;20198;-74
2022/04/08 01:02:31;;;;;;;1.00;1.00;;;;;;;10.55;85.94;63083.47;5023893;28;20222;-76
2022/04/08 01:04:57;;;;;;;2.10;1.40;;;;;;;10.60;84.79;63088.66;5023609;28;20210;-75
2022/04/08 01:07:25;;;;;;;1.25;1.25;;;;;;;10.69;82.61;63100.00;5017619;28;20257;-74
2022/04/08 01:09:53;;;;;;;1.52;1.42;;;;;;;10.59;85.28;63092.72;5005884;28;20199;-75
2022/04/08 01:12:20;;;;;;;1.75;1.65;;;;;;;10.64;83.26;63092.78;5023013;28;23496;-75
2022/04/08 01:14:47;;;;;;;1.83;1.73;;;;;;;10.51;86.65;63081.88;5023811;28;20232;-75
2022/04/08 01:17:14;;;;;;;3.25;1.58;;;;;;;10.56;83.76;63091.63;5032449;28;20219;-75
2022/04/08 01:19:41;;;;;;;1.30;1.30;;;;;;;10.52;85.11;63085.47;5036204;28;20241;-76
2022/04/08 01:22:08;;;;;;;1.70;1.60;;;;;;;10.55;83.53;63091.13;5022722;28;20245;-74
2022/04/08 01:24:37;;;;;;;1.60;1.50;;;;;;;10.60;80.37;63090.66;5025271;28;20203;-75
2022/04/08 01:27:05;;;;;;;1.77;1.40;;;;;;;10.61;84.35;63089.69;5024004;28;20242;-75
2022/04/08 01:29:32;;;;;;;1.90;1.80;;;;;;;10.63;82.63;63094.28;5025274;28;20198;-76
2022/04/08 01:31:59;;;;;;;1.85;1.75;;;;;;;10.81;74.34;63112.41;5022783;28;20227;-75
2022/04/08 01:34:25;;;;;;;1.77;1.67;;;;;;;10.79;82.31;63110.88;5025603;28;20210;-75
2022/04/08 01:36:52;;;;;;;4.43;1.85;;;;;;;10.68;83.67;63102.03;5008841;28;20224;-75
2022/04/08 01:39:19;;;;;;;1.48;1.48;;;;;;;10.46;85.15;63077.22;5016239;28;20206;-75
2022/04/08 01:41:46;;;;;;;1.50;1.40;;;;;;;10.45;81.38;63076.19;5020889;28;20230;-74
2022/04/08 01:44:14;;;;;;;1.50;1.40;;;;;;;10.48;82.40;63081.31;5029897;28;20203;-74
2022/04/08 01:46:41;;;;;;;1.65;1.55;;;;;;;10.40;82.56;63071.03;5036885;28;20205;-75
2022/04/08 01:49:07;;;;;;;1.58;1.23;;;;;;;10.42;81.24;63073.06;5021993;28;20203;-74
2022/04/08 01:51:34;;;;;;;1.23;1.13;;;;;;;10.43;82.53;63074.13;5024210;28;20499;-75
2022/04/08 01:54:01;;;;;;;1.23;1.23;;;;;;;10.41;82.75;63072.06;5024292;28;20249;-74
2022/04/08 01:56:28;;;;;;;1.70;1.60;;;;;;;10.52;77.45;63082.41;5024957;28;20198;-75
2022/04/08 01:58:54;;;;;;;2.10;1.35;;;;;;;10.54;77.96;63081.94;5022868;28;20202;-75
2022/04/08 02:01:23;;;;;;;3.13;1.58;;;;;;;10.57;78.24;63087.56;5024523;28;20234;-73
2022/04/08 02:03:49;;;;;;;1.88;1.77;;;;;;;10.56;77.93;63084.00;5024544;28;20438;-75
2022/04/08 02:06:16;;;;;;;1.42;1.42;;;;;;;10.59;77.33;63087.09;5022994;28;20249;-74
2022/04/08 02:08:43;;;;;;;1.98;1.88;;;;;;;10.59;76.67;63090.16;5023231;28;20272;-76
2022/04/08 02:11:10;;;;;;;1.20;1.10;;;;;;;10.63;74.03;63093.78;5024779;28;20253;-75
2022/04/08 02:13:36;;;;;;;1.83;1.73;;;;;;;10.70;75.29;63096.44;5023788;28;20215;-73
2022/04/08 02:16:06;;;;;;;2.67;1.70;;;;;;;10.70;74.30;63098.50;5013938;28;20257;-75
2022/04/08 02:18:34;;;;;;;1.77;1.67;;;;;;;10.74;75.84;63107.72;5024327;28;20261;-75
2022/04/08 02:21:01;;;;;;;1.83;1.70;;;;;;;10.59;77.15;63087.09;5020304;28;20229;-75
2022/04/08 02:23:28;;;;;;;1.90;1.42;;;;;;;10.57;76.81;63090.13;5021715;28;20226;-75
2022/04/08 02:25:55;;;;;;;2.28;1.50;;;;;;;10.60;74.17;63093.22;5022540;28;20495;-75
2022/04/08 02:28:22;;;;;;;1.23;1.23;;;;;;;10.58;73.97;63088.63;5032141;28;20231;-75
2022/04/08 02:30:52;;;;;;;2.13;1.65;;;;;;;10.59;73.79;63095.25;5024078;28;20202;-75
2022/04/08 02:33:19;;;;;;;1.33;1.30;;;;;;;10.83;68.82;63112.47;5024530;28;20222;-75
2022/04/08 02:35:48;;;;;;;1.42;1.38;;;;;;;10.85;71.51;63116.56;5021550;28;20198;-75
2022/04/08 02:38:15;;;;;;;1.48;1.45;;;;;;;10.66;74.36;63094.88;5023411;28;20215;-75
2022/04/08 02:40:42;;;;;;;2.97;1.70;;;;;;;10.62;73.16;63095.81;5023449;28;20226;-76
2022/04/08 02:43:10;;;;;;;1.50;1.50;;;;;;;10.54;73.13;63082.44;5020819;28;20555;-76
2022/04/08 02:45:37;;;;;;;1.15;1.08;;;;;;;10.75;70.08;63106.22;5024187;28;20240;-74
2022/04/08 02:48:05;;;;;;;1.80;1.65;;;;;;;10.78;70.21;63107.28;5022071;28;20404;-74
2022/04/08 02:50:32;;;;;;;0.98;0.98;;;;;;;10.83;69.30;63114.47;5022944;28;20207;-75
2022/04/08 02:53:00;;;;;;;1.25;1.15;;;;;;;10.90;70.61;63121.72;5022604;28;20230;-75
2022/04/08 02:55:27;;;;;;;2.72;1.20;;;;;;;10.96;68.69;63131.00;5023627;28;20202;-75
2022/04/08 02:57:54;;;;;;;0.77;0.77;;;;;;;11.14;65.29;63147.09;5016522;28;20230;-74
2022/04/08 03:00:21;;;;;;;1.40;1.15;;;;;;;11.14;68.63;63147.09;5022412;28;20202;-74
2022/04/08 03:02:49;;;;;;;1.20;1.10;;;;;;;10.91;71.06;63125.84;5012345;28;20239;-75
2022/04/08 03:05:16;;;;;;;1.02;1.02;;;;;;;10.75;71.39;63106.22;5003786;28;20191;-76
2022/04/08 03:07:43;;;;;;;1.38;1.27;;;;;;;10.68;72.44;63099.50;5003953;28;20554;-74
2022/04/08 03:10:12;;;;;;;1.10;1.10;;;;;;;10.63;72.97;63096.34;5020271;28;20209;-75
2022/04/08 03:12:40;;;;;;;1.15;1.00;;;;;;;10.58;73.23;63088.63;5005256;28;20247;-77
2022/04/08 03:15:07;;;;;;;1.55;1.48;;;;;;;10.65;71.58;63098.41;5003528;28;20500;-74
2022/04/08 03:17:37;;;;;;;1.00;1.00;;;;;;;10.45;76.02;63078.22;5021540;28;20268;-75
2022/04/08 03:20:04;;;;;;;1.77;1.10;;;;;;;10.33;77.17;63063.78;5020828;28;20402;-75
2022/04/08 03:22:31;;;;;;;2.83;1.67;;;;;;;10.36;77.22;63069.44;5023185;28;20230;-75
2022/04/08 03:24:58;;;;;;;1.30;1.30;;;;;;;10.29;75.32;63062.19;5022706;28;20249;-75
2022/04/08 03:27:26;;;;;;;2.95;2.15;;;;;;;10.27;76.71;63059.59;5022419;28;20238;-75
2022/04/08 03:29:53;;;;;;;4.95;2.17;;;;;;;10.25;82.82;63052.94;5021609;28;20203;-75
2022/04/08 03:32:20;;;;;;;3.75;3.13;;;;;;;9.87;89.53;63013.09;5022398;28;20234;-75
2022/04/08 03:34:46;;;;;;;2.40;2.30;;;;;;;9.66;92.72;62993.94;5023354;28;20221;-75
2022/04/08 03:37:16;;;;;;;2.88;2.67;;;;;;;9.44;94.45;62968.63;5011940;28;20226;-76
2022/04/08 03:39:43;;;;;;;3.08;2.20;;;;;;;9.27;96.62;62954.09;5025276;28;20363;-75
2022/04/08 03:42:10;;;;;;;2.55;2.45;;;;;;;9.14;97.93;62941.19;5020691;28;20238;-76
2022/04/08 03:44:38;;;;;;;2.97;2.45;;;;;;;9.11;98.90;62935.53;5021751;28;20195;-75
2022/04/08 03:47:06;;;;;;;4.38;2.53;;;;;;;8.91;98.22;62919.97;5025161;28;20288;-76
2022/04/08 03:49:35;;;;;;;2.38;2.17;;;;;;;8.85;98.43;62910.72;5011805;28;20404;-76
2022/04/08 03:52:05;;;;;;;2.28;2.13;;;;;;;8.83;98.94;62913.72;5003266;28;20290;-76
2022/04/08 03:54:32;;;;;;;2.95;2.15;;;;;;;8.79;98.47;62905.03;5022607;28;20223;-76
2022/04/08 03:56:58;;;;;;;2.30;2.20;;;;;;;8.81;99.26;62906.56;5022793;28;20406;-76
2022/04/08 03:59:25;;;;;;;3.15;2.55;;;;;;;8.74;99.41;62894.78;5005533;28;20207;-77
2022/04/08 04:01:53;;;;;;;3.33;2.25;;;;;;;8.57;99.44;62882.28;5015400;28;20238;-75
2022/04/08 04:04:20;;;;;;;2.78;2.58;;;;;;;8.40;100.00;62861.69;5022083;28;20217;-75
2022/04/08 04:06:47;;;;;;;2.78;2.58;;;;;;;8.40;100.00;62862.19;5022829;28;20265;-76
2022/04/08 04:09:14;;;;;;;3.35;3.15;;;;;;;8.28;100.00;62849.28;5014726;28;20198;-76
2022/04/08 04:11:40;;;;;;;3.03;2.83;;;;;;;8.24;100.00;62850.75;5022691;28;20214;-75
2022/04/08 04:14:07;;;;;;;2.95;2.70;;;;;;;8.24;100.00;62845.16;5021720;28;20476;-76
2022/04/08 04:16:34;;;;;;;4.03;2.88;;;;;;;8.20;100.00;62842.03;5021525;28;20234;-75
2022/04/08 04:19:02;;;;;;;3.22;2.65;;;;;;;8.14;100.00;62843.44;5022334;28;20203;-75
2022/04/08 04:21:33;;;;;;;2.60;2.40;;;;;;;8.05;100.00;62826.53;5020307;28;20291;-75
2022/04/08 04:23:59;;;;;;;2.28;2.17;;;;;;;8.07;100.00;62831.16;5019096;28;20206;-75
2022/04/08 04:26:26;;;;;;;2.53;2.33;;;;;;;8.19;100.00;62846.06;5021394;28;20195;-75
2022/04/08 04:28:53;;;;;;;4.30;2.63;;;;;;;8.36;100.00;62855.00;5018092;28;20444;-75
2022/04/08 04:31:20;;;;;;;3.17;2.88;;;;;;;8.45;100.00;62869.91;5024099;28;20210;-75
2022/04/08 04:33:46;;;;;;;2.97;2.83;;;;;;;8.40;100.00;62861.69;5022361;28;20218;-75
2022/04/08 04:36:15;;;;;;;2.78;2.58;;;;;;;8.46;100.00;62867.88;5024907;28;20207;-75
2022/04/08 04:38:41;;;;;;;2.83;2.63;;;;;;;8.42;100.00;62864.25;5025043;28;20670;-74
2022/04/08 04:41:09;;;;;;;2.97;2.78;;;;;;;8.46;100.00;62870.91;5024702;28;20207;-76
2022/04/08 04:43:36;;;;;;;4.47;2.55;;;;;;;8.52;100.00;62884.22;5024292;28;20242;-76
2022/04/08 04:46:03;;;;;;;3.22;2.67;;;;;;;8.66;100.00;62891.06;5012579;28;20199;-74
2022/04/08 04:48:30;;;;;;;3.63;2.67;;;;;;;8.76;100.00;62901.41;5006813;28;20226;-75
2022/04/08 04:50:57;;;;;;;2.58;2.38;;;;;;;8.83;100.00;62908.63;5025198;28;20203;-76
2022/04/08 04:53:26;;;;;;;2.80;2.58;;;;;;;8.96;100.00;62927.66;5024511;28;20539;-76
2022/04/08 04:55:54;;;;;;;2.85;2.47;;;;;;;9.03;100.00;62926.75;5025679;28;20198;-76
2022/04/08 04:58:21;;;;;;;2.38;2.20;;;;;;;9.10;100.00;62934.53;5011962;28;20215;-74
2022/04/08 05:00:48;;;;;;;3.65;2.83;;;;;;;9.24;100.00;62951.53;5019677;28;20208;-76
2022/04/08 05:03:15;;;;;;;4.47;2.30;;;;;;;9.26;100.00;62955.63;5020841;28;20250;-76
2022/04/08 05:05:42;;;;;;;3.85;2.75;;;;;;;9.03;100.00;62929.31;5028461;28;20442;-75
2022/04/08 05:08:09;;;;;;;2.83;2.60;;;;;;;9.27;100.00;62954.63;5013416;28;20223;-76
2022/04/08 05:10:37;;;;;;;3.38;2.83;;;;;;;9.24;100.00;62951.53;5022112;28;20219;-77
2022/04/08 05:13:04;;;;;;;2.63;2.47;;;;;;;9.30;100.00;62954.69;5017849;28;20225;-75
2022/04/08 05:15:32;;;;;;;2.92;2.78;;;;;;;9.38;100.00;62965.50;5023142;28;20238;-75
2022/04/08 05:18:00;;;;;;;4.63;3.47;;;;;;;9.36;100.00;62960.88;5017807;28;20268;-75
2022/04/08 05:20:27;;;;;;;4.40;3.38;;;;;;;9.51;100.00;62975.88;5024376;28;20275;-76
2022/04/08 05:22:54;;;;;;;5.18;4.57;;;;;;;9.70;100.00;62995.53;5020225;28;20289;-76
2022/04/08 05:25:21;;;;;;;5.82;3.60;;;;;;;9.84;96.44;63015.06;5022267;28;20218;-75
2022/04/08 05:27:51;;;;;;;3.10;2.90;;;;;;;10.01;96.22;63030.13;5024415;28;20539;-77
2022/04/08 05:30:18;;;;;;;2.97;2.65;;;;;;;10.22;96.39;63051.88;5024367;28;20378;-76
2022/04/08 05:32:46;;;;;;;4.80;2.53;;;;;;;10.45;94.10;63075.69;5023345;28;20227;-77
2022/04/08 05:35:14;;;;;;;3.95;3.35;;;;;;;10.57;92.46;63085.03;5020162;28;20201;-76
2022/04/08 05:37:42;;;;;;;5.90;3.03;;;;;;;10.74;90.87;63105.69;5013780;28;20578;-76
2022/04/08 05:40:11;;;;;;;2.70;2.13;;;;;;;10.87;89.39;63119.13;5024837;28;20202;-76
2022/04/08 05:42:39;;;;;;;2.55;2.20;;;;;;;11.01;92.27;63133.13;5023084;28;20471;-76
2022/04/08 05:45:08;;;;;;;2.67;2.55;;;;;;;11.02;91.89;63134.69;5006192;28;20242;-77
2022/04/08 05:47:35;;;;;;;2.70;2.60;;;;;;;11.09;91.18;63141.94;5004094;28;20547;-75
2022/04/08 05:50:03;;;;;;;3.20;3.00;;;;;;;11.01;91.31;63133.13;5008269;28;20198;-75
2022/04/08 05:52:30;;;;;;;3.85;3.50;;;;;;;10.88;94.19;63122.72;5024901;28;20222;-76
2022/04/08 05:54:57;;;;;;;3.92;3.60;;;;;;;11.07;94.38;63141.88;5011719;28;20195;-77
2022/04/08 05:57:24;;;;;;;3.28;2.97;;;;;;;11.02;95.35;63134.69;5009047;28;20562;-76
2022/04/08 05:59:51;;;;;;;3.40;3.15;;;;;;;11.18;95.21;63148.19;5024875;28;20205;-76
2022/04/08 06:02:20;;;;;;;4.55;4.20;;;;;;;11.13;91.79;63143.50;5023290;28;20285;-77
2022/04/08 06:04:47;;;;;;;5.90;3.38;;;;;;;11.33;91.93;63166.25;5023937;28;20246;-76
2022/04/08 06:07:14;;;;;;;8.30;3.95;;;;;;;11.36;93.99;63167.34;5020383;28;20223;-76
2022/04/08 06:09:41;;;;;;;4.18;3.70;;;;;;;11.38;95.03;63171.44;5023859;28;20237;-75
2022/04/08 06:12:09;;;;;;;4.32;3.78;;;;;;;11.39;96.37;63170.44;5024041;28;20265;-76
2022/04/08 06:14:36;;;;;;;4.03;3.38;;;;;;;11.57;92.34;63193.66;5023033;28;20210;-75
2022/04/08 06:17:02;;;;;;;4.05;2.63;;;;;;;11.58;91.82;63192.66;5026368;28;20225;-75
2022/04/08 06:19:31;;;;;;;4.95;3.10;;;;;;;11.62;93.30;63196.31;5020262;28;20203;-76
2022/04/08 06:21:57;;;;;;;5.78;3.05;;;;;;;11.45;93.54;63184.31;5023479;28;20249;-76
2022/04/08 06:24:24;;;;;;;3.05;2.78;;;;;;;11.48;92.58;63182.31;5024729;28;20202;-76
2022/04/08 06:26:51;;;;;;;6.75;3.13;;;;;;;11.50;93.50;63181.84;5024060;28;20253;-77
2022/04/08 06:29:18;;;;;;;4.60;2.88;;;;;;;11.42;95.39;63173.03;5007177;28;20497;-76
2022/04/08 06:31:45;;;;;;;2.72;2.53;;;;;;;11.59;95.10;63193.19;5011250;28;20202;-76
2022/04/08 06:34:12;;;;;;;6.25;2.92;;;;;;;11.81;94.84;63215.47;5025092;28;20262;-78
2022/04/08 06:36:40;;;;;;;9.45;3.00;;;;;;;11.92;93.43;63224.34;5025354;28;20249;-78
2022/04/08 06:39:07;;;;;;;6.35;2.83;;;;;;;11.77;91.96;63209.31;5014766;28;20199;-78
2022/04/08 06:41:34;;;;;;;2.50;2.40;;;;;;;11.78;93.33;63212.91;5016021;28;20202;-78
2022/04/08 06:44:02;;;;;;;6.68;2.95;;;;;;;11.90;92.67;63224.81;5027845;28;20261;-78
2022/04/08 06:46:29;;;;;;;3.20;3.00;;;;;;;12.00;91.64;63238.25;5028014;28;20371;-78
2022/04/08 06:48:58;;;;;;;2.70;2.50;;;;;;;12.23;92.36;63259.00;5026611;28;20209;-78
2022/04/08 06:51:24;;;;;;;3.80;3.13;;;;;;;12.29;90.80;63268.31;5025916;28;20249;-78
2022/04/08 06:53:53;;;;;;;3.15;2.80;;;;;;;12.24;87.22;63260.03;5026276;28;20428;-78
2022/04/08 06:56:19;;;;;;;2.60;2.42;;;;;;;12.19;87.08;63257.94;5027537;28;20226;-78
2022/04/08 06:58:46;;;;;;;3.00;2.78;;;;;;;12.32;87.56;63268.34;5024774;28;20218;-78
2022/04/08 07:01:13;;;;;;;3.35;2.90;;;;;;;12.46;88.19;63282.84;5023883;28;20261;-79
2022/04/08 07:03:40;;;;;;;7.32;2.60;;;;;;;12.45;89.22;63284.91;5027168;28;20284;-78
2022/04/08 07:06:07;;;;;;;3.08;2.78;;;;;;;12.46;89.18;63283.38;5027959;28;20273;-79
2022/04/08 07:08:34;;;;;;;2.40;2.30;;;;;;;12.67;88.32;63302.59;5026536;28;20226;-77
2022/04/08 07:11:02;;;;;;;4.90;3.08;;;;;;;12.90;89.04;63325.94;5027285;28;20253;-77
2022/04/08 07:13:29;;;;;;;2.90;2.63;;;;;;;12.93;85.58;63333.63;5024145;28;20273;-78
2022/04/08 07:15:55;;;;;;;4.93;2.67;;;;;;;12.98;85.92;63334.22;5023867;28;20203;-75
2022/04/08 07:18:22;;;;;;;4.20;3.25;;;;;;;13.13;85.53;63354.91;5022738;28;20531;-77
2022/04/08 07:20:49;;;;;;;4.38;2.72;;;;;;;13.11;84.26;63349.75;5023860;28;20205;-76
2022/04/08 07:23:16;;;;;;;3.65;3.05;;;;;;;13.17;80.80;63355.97;5023483;28;20240;-76
2022/04/08 07:25:43;;;;;;;3.45;3.15;;;;;;;13.28;80.24;63367.94;5023219;28;20249;-76
2022/04/08 07:28:12;;;;;;;6.10;2.72;;;;;;;13.49;76.86;63389.19;5022955;28;20229;-77
2022/04/08 07:30:39;;;;;;;5.45;3.40;;;;;;;13.54;74.12;63394.91;5023925;28;20212;-76
2022/04/08 07:33:06;;;;;;;4.03;2.92;;;;;;;13.68;69.49;63406.34;5024418;28;20257;-76
2022/04/08 07:35:34;;;;;;;6.13;2.13;;;;;;;13.94;60.77;63433.84;5024755;28;20244;-76
2022/04/08 07:38:03;;;;;;;3.15;2.13;;;;;;;13.97;60.97;63441.03;5006251;28;20223;-78
2022/04/08 07:40:30;;;;;;;4.25;1.95;;;;;;;14.02;64.72;63444.19;5005189;28;20246;-76
2022/04/08 07:42:57;;;;;;;1.60;1.50;;;;;;;14.30;51.26;63477.91;5004279;28;20274;-77
2022/04/08 07:45:29;;;;;;;4.10;1.73;;;;;;;14.51;48.69;63492.03;5017779;28;20202;-77
2022/04/08 07:47:58;;;;;;;3.20;1.92;;;;;;;14.76;63.13;63526.19;5019722;28;20245;-76
2022/04/08 07:50:26;;;;;;;5.47;2.58;;;;;;;14.85;70.35;63527.34;5031421;28;20241;-77
2022/04/08 07:52:53;;;;;;;2.70;2.15;;;;;;;14.87;72.15;63532.50;5035919;28;20233;-77
2022/04/08 07:55:20;;;;;;;1.73;1.63;;;;;;;14.78;69.49;63523.16;5023304;28;20237;-77
2022/04/08 07:57:48;;;;;;;2.47;2.00;;;;;;;14.87;64.88;63532.50;5023159;28;20407;-78
2022/04/08 08:00:16;;;;;;;1.83;1.40;;;;;;;14.74;54.02;63521.03;5022097;28;20199;-77
2022/04/08 08:02:45;;;;;;;3.10;1.58;;;;;;;14.65;63.66;63509.63;5023921;28;20258;-77
2022/04/08 08:05:12;;;;;;;3.83;1.95;;;;;;;14.61;68.21;63505.50;5026987;28;20191;-77
2022/04/08 08:07:47;;;;;;;3.97;1.70;;;;;;;14.71;57.83;63515.88;5026390;28;20224;-77
2022/04/08 08:10:18;;;;;;;1.40;1.30;;;;;;;14.94;49.54;63534.13;5026365;28;20214;-78
2022/04/08 08:12:46;;;;;;;2.83;1.25;;;;;;;15.06;44.68;63554.28;5027553;28;20222;-77
2022/04/08 08:15:13;;;;;;;6.05;1.50;;;;;;;15.12;42.37;63557.44;5027080;28;20409;-77
2022/04/08 08:17:40;;;;;;;1.83;1.10;;;;;;;15.17;41.65;63563.13;5031069;28;20223;-78
2022/04/08 08:20:10;;;;;;;1.48;1.10;;;;;;;15.35;41.19;63586.97;5029888;28;20202;-76
2022/04/08 08:22:38;;;;;;;1.25;1.00;;;;;;;15.52;40.48;63602.09;5030277;28;20268;-77
2022/04/08 08:25:07;;;;;;;2.83;1.00;;;;;;;15.73;43.53;63621.38;5026323;28;20385;-77
2022/04/08 08:27:40;;;;;;;1.00;1.00;;;;;;;15.80;40.56;63628.66;5026102;28;20222;-77
2022/04/08 08:30:10;;;;;;;1.42;1.33;;;;;;;15.84;42.43;63634.88;5026375;28;20202;-77
2022/04/08 08:32:37;;;;;;;1.08;1.08;;;;;;;15.77;41.16;63628.09;5026175;28;20219;-77
2022/04/08 08:35:05;;;;;;;1.95;1.20;;;;;;;15.59;41.61;63606.28;5028829;28;20237;-77
2022/04/08 08:37:34;;;;;;;2.47;1.27;;;;;;;15.71;43.57;63618.75;5026791;28;20222;-77
2022/04/08 08:40:01;;;;;;;1.27;1.17;;;;;;;16.06;45.55;63655.16;5026845;28;20241;-77
2022/04/08 08:42:29;;;;;;;9.82;2.25;;;;;;;16.13;43.01;63659.88;5025518;28;20252;-76
2022/04/08 08:44:56;;;;;;;1.15;1.15;;;;;;;16.31;41.76;63678.09;5026338;28;20516;-77
2022/04/08 08:47:26;;;;;;;4.10;1.10;;;;;;;16.24;38.64;63668.22;5026013;28;20268;-77
2022/04/08 08:49:53;;;;;;;3.28;1.85;;;;;;;16.02;40.45;63654.09;5026432;28;20305;-77
2022/04/08 08:52:20;;;;;;;2.08;0.93;;;;;;;16.17;40.11;63667.13;5025925;28;20554;-77
2022/04/08 08:54:48;;;;;;;0.90;0.90;;;;;;;16.43;39.56;63693.13;5026250;28;20198;-77
2022/04/08 08:57:16;;;;;;;1.00;0.90;;;;;;;16.63;40.60;63721.66;5025418;28;20253;-77
2022/04/08 08:59:44;;;;;;;0.85;0.85;;;;;;;16.80;37.80;63729.59;5024878;28;20522;-77
2022/04/08 09:02:13;;;;;;;7.97;5.47;;;;;;;17.02;37.85;63757.63;5026706;28;20237;-76
2022/04/08 09:04:43;;;;;;;1.35;1.35;;;;;;;16.88;39.57;63740.47;5026899;28;20249;-76
2022/04/08 09:07:23;;;;;;;2.40;2.20;;;;;;;16.81;40.76;63732.66;5026816;28;20241;-77
2022/04/08 09:09:53;;;;;;;2.45;1.20;;;;;;;17.01;38.31;63754.03;5025689;28;20210;-77
2022/04/08 09:12:21;;;;;;;1.65;0.90;;;;;;;17.01;37.56;63751.44;5024444;28;20225;-76
2022/04/08 09:14:49;;;;;;;3.85;1.50;;;;;;;16.85;39.21;63739.41;5025379;28;20545;-77
2022/04/08 09:17:18;;;;;;;5.45;1.52;;;;;;;16.49;39.65;63699.38;5027403;28;20305;-78
2022/04/08 09:19:48;;;;;;;6.00;1.80;;;;;;;16.41;41.04;63691.56;5026355;28;20214;-77
2022/04/08 09:22:15;;;;;;;5.68;2.00;;;;;;;16.34;42.42;63684.28;5041254;28;20221;-77
2022/04/08 09:24:42;;;;;;;3.13;1.20;;;;;;;16.43;41.88;63696.22;5046553;28;20263;-77
2022/04/08 09:27:11;;;;;;;0.93;0.93;;;;;;;16.44;41.20;63696.72;5031109;28;20218;-77
2022/04/08 09:29:38;;;;;;;4.22;1.20;;;;;;;16.70;40.55;63721.25;5027440;28;20210;-77
2022/04/08 09:32:09;;;;;;;1.20;1.05;;;;;;;16.68;39.99;63721.72;5025759;28;20218;-76
2022/04/08 09:34:36;;;;;;;4.35;1.00;;;;;;;16.79;40.84;63735.75;5023413;28;20198;-76
2022/04/08 09:37:07;;;;;;;3.63;1.08;;;;;;;16.81;39.66;63730.09;5026359;28;20225;-76
2022/04/08 09:39:33;;;;;;;1.50;1.40;;;;;;;16.58;41.56;63713.91;5025858;28;20518;-77
2022/04/08 09:42:03;;;;;;;2.47;1.10;;;;;;;16.39;39.63;63689.50;5025884;28;20218;-78
2022/04/08 09:44:35;;;;;;;1.40;0.85;;;;;;;16.52;40.74;63702.50;5024130;28;20230;-76
2022/04/08 09:47:02;;;;;;;0.63;0.63;;;;;;;16.93;39.29;63743.09;5024821;28;20222;-77
2022/04/08 09:49:29;;;;;;;0.60;0.60;;;;;;;16.97;38.69;63749.31;5025036;28;20198;-77
2022/04/08 09:51:58;;;;;;;4.50;1.30;;;;;;;16.91;40.03;63748.75;5010472;28;20210;-77
2022/04/08 09:54:30;;;;;;;9.93;1.52;;;;;;;16.80;38.87;63737.31;5027285;28;20226;-77
2022/04/08 09:56:59;;;;;;;1.25;0.90;;;;;;;17.03;38.41;63755.59;5026791;28;20351;-77
2022/04/08 09:59:31;;;;;;;3.72;1.00;;;;;;;17.17;39.22;63770.66;5027594;28;20203;-77
2022/04/08 10:01:59;;;;;;;1.00;1.00;;;;;;;17.30;37.76;63786.78;5026511;28;20237;-77
2022/04/08 10:04:27;;;;;;;1.77;1.08;;;;;;;17.27;38.09;63781.06;5026464;28;20230;-76
2022/04/08 10:06:55;;;;;;;3.70;1.98;;;;;;;17.13;45.52;63769.09;5026096;28;20297;-77
2022/04/08 10:09:26;;;;;;;4.05;1.58;;;;;;;17.00;46.33;63758.13;5026666;28;20210;-77
2022/04/08 10:12:08;;;;;;;4.60;1.40;;;;;;;16.97;46.84;63749.31;5028240;28;20221;-77
2022/04/08 10:14:44;;;;;;;1.73;1.33;;;;;;;16.80;45.76;63736.78;5045061;28;20277;-78
2022/04/08 10:17:11;;;;;;;1.13;1.10;;;;;;;16.83;46.32;63734.75;5025592;28;20226;-77
2022/04/08 10:19:38;;;;;;;3.92;1.60;;;;;;;16.88;45.73;63745.63;5026066;28;20248;-77
2022/04/08 10:22:16;;;;;;;5.95;1.83;;;;;;;16.97;46.96;63746.75;5024140;28;20222;-77
2022/04/08 10:24:53;;;;;;;3.20;1.20;;;;;;;16.97;45.66;63755.00;5022937;28;20253;-77
2022/04/08 10:27:30;;;;;;;2.08;1.60;;;;;;;17.00;46.21;63747.81;5023650;28;20214;-76
2022/04/08 10:29:59;;;;;;;2.15;1.48;;;;;;;17.12;45.70;63767.50;5022300;28;20198;-77
2022/04/08 10:32:37;;;;;;;3.03;1.08;;;;;;;17.37;44.34;63795.59;5022326;28;20289;-77
2022/04/08 10:35:16;;;;;;;3.63;1.25;;;;;;;17.25;44.68;63778.47;5024342;28;20202;-76
2022/04/08 10:37:54;;;;;;;4.47;1.15;;;;;;;17.20;45.36;63773.78;5024184;28;20452;-77
2022/04/08 10:40:21;;;;;;;1.25;1.20;;;;;;;17.13;45.41;63763.94;5023948;28;20265;-77
2022/04/08 10:42:57;;;;;;;0.88;0.88;;;;;;;17.27;45.06;63780.56;5025272;28;20226;-76
2022/04/08 10:45:25;;;;;;;1.65;1.17;;;;;;;17.41;45.16;63794.63;5023907;28;20273;-76
2022/04/08 10:47:52;;;;;;;2.17;1.20;;;;;;;17.41;44.65;63800.28;5023092;28;20285;-78
2022/04/08 10:50:26;;;;;;;1.30;1.20;;;;;;;17.50;42.85;63804.00;5023060;28;20245;-76
2022/04/08 10:53:07;;;;;;;2.75;1.08;;;;;;;17.55;40.42;63806.63;5024497;28;20253;-77
2022/04/08 10:55:49;;;;;;;4.72;1.58;;;;;;;17.73;43.02;63831.03;5024856;28;20546;-77
2022/04/08 10:58:29;;;;;;;1.50;1.40;;;;;;;17.74;43.97;63829.00;5024461;28;20213;-77
2022/04/08 11:00:57;;;;;;;5.15;1.52;;;;;;;17.88;40.60;63843.56;5024532;28;20201;-77
2022/04/08 11:03:26;;;;;;;1.40;1.30;;;;;;;18.08;37.10;63867.50;5023377;28;20256;-77
2022/04/08 11:05:53;;;;;;;3.50;1.02;;;;;;;18.36;37.60;63891.00;5022658;28;20216;-77
2022/04/08 11:08:23;;;;;;;1.27;0.85;;;;;;;18.60;37.13;63918.09;5024187;28;20217;-76
2022/04/08 11:10:56;;;;;;;1.05;1.00;;;;;;;18.39;35.90;63894.13;5023769;28;20409;-76
2022/04/08 11:13:23;;;;;;;0.80;0.80;;;;;;;18.50;37.59;63910.75;5030918;28;20545;-76
2022/04/08 11:15:51;;;;;;;1.23;0.95;;;;;;;18.43;37.07;63901.41;5025580;28;20388;-77
2022/04/08 11:18:20;;;;;;;0.70;0.70;;;;;;;18.62;37.02;63923.25;5023845;28;20285;-76
2022/04/08 11:20:49;;;;;;;0.68;0.68;;;;;;;18.93;36.94;63955.06;5023004;28;20248;-77
2022/04/08 11:23:25;;;;;;;1.30;1.17;;;;;;;19.17;37.33;63978.00;5022694;28;20647;-77
2022/04/08 11:25:52;;;;;;;1.00;0.90;;;;;;;19.33;36.75;63997.31;5023608;28;20269;-77
2022/04/08 11:28:22;;;;;;;0.77;0.77;;;;;;;18.72;36.75;63930.59;5023478;28;20225;-75
2022/04/08 11:30:55;;;;;;;1.33;1.00;;;;;;;18.79;36.01;63941.00;5025224;28;20202;-78
2022/04/08 11:33:24;;;;;;;0.82;0.82;;;;;;;18.89;36.04;63948.84;5015772;28;20218;-76
2022/04/08 11:35:57;;;;;;;3.10;1.17;;;;;;;19.03;36.41;63963.44;5017813;28;20544;-76
2022/04/08 11:38:25;;;;;;;1.40;1.17;;;;;;;19.21;36.01;63984.75;5027468;28;20221;-76